Time;durP1;ratioP1;P1;durP2;ratioP2;P2;SDS_P1;SDS_P2;PMS_P1;PMS_P2;Temp;Humidity;BMP_temperature;BMP_pressure;BME280_temperature;BME280_humidity;BME280_pressure;Samples;Min_cycle;Max_cycle;Signal;HPM_P1;HPM_P2
2023/08/19 00:01:44;;;;;;;33.42;30.33;;;;;;;20.91;100.00;101030.09;4971662;28;20109;-68
2023/08/19 00:04:10;;;;;;;33.78;30.67;;;;;;;20.92;100.00;101023.94;4971587;28;20027;-67
2023/08/19 00:06:40;;;;;;;32.20;29.30;;;;;;;20.90;100.00;101023.09;4971059;28;20085;-64
2023/08/19 00:09:08;;;;;;;31.90;29.00;;;;;;;20.87;100.00;101019.59;4971329;28;20588;-63
2023/08/19 00:11:38;;;;;;;31.98;29.05;;;;;;;20.87;100.00;101022.22;4971716;28;20367;-66
2023/08/19 00:14:04;;;;;;;31.58;28.58;;;;;;;20.86;100.00;101019.59;4971432;28;20070;-67
2023/08/19 00:16:29;;;;;;;31.27;28.58;;;;;;;20.85;100.00;101021.34;4971102;28;20031;-67
2023/08/19 00:18:55;;;;;;;31.70;28.75;;;;;;;20.85;100.00;101021.34;4971138;28;20038;-67
2023/08/19 00:21:21;;;;;;;30.52;27.77;;;;;;;20.83;100.00;101022.28;4971264;28;20019;-67
2023/08/19 00:23:46;;;;;;;29.42;26.73;;;;;;;20.80;100.00;101031.06;4971219;28;20034;-65
2023/08/19 00:26:11;;;;;;;31.90;28.92;;;;;;;20.79;100.00;101024.06;4970957;28;20181;-68
2023/08/19 00:28:40;;;;;;;31.00;28.20;;;;;;;20.79;100.00;101024.06;4971593;28;20026;-67
2023/08/19 00:31:09;;;;;;;31.33;28.35;;;;;;;20.77;100.00;101023.19;4970995;28;20501;-67
2023/08/19 00:33:35;;;;;;;33.08;30.08;;;;;;;20.78;100.00;101024.06;4971292;28;20102;-67
2023/08/19 00:36:02;;;;;;;32.20;29.27;;;;;;;20.80;100.00;101022.28;4971190;28;20176;-67
2023/08/19 00:38:28;;;;;;;33.42;30.40;;;;;;;20.79;100.00;101029.31;4970935;28;20022;-67
2023/08/19 00:40:53;;;;;;;32.03;29.08;;;;;;;20.78;100.00;101024.91;4965808;28;20027;-66
2023/08/19 00:43:18;;;;;;;31.65;28.80;;;;;;;20.75;100.00;101019.69;4951976;28;20449;-67
2023/08/19 00:45:46;;;;;;;32.83;29.83;;;;;;;20.74;100.00;101018.81;4954958;28;20445;-67
2023/08/19 00:48:14;;;;;;;31.55;28.75;;;;;;;20.74;100.00;101023.22;4970770;28;20054;-68
2023/08/19 00:50:39;;;;;;;30.02;27.25;;;;;;;20.75;100.00;101022.31;4970797;28;20169;-67
2023/08/19 00:53:06;;;;;;;31.55;28.75;;;;;;;20.76;100.00;101021.41;4970751;28;20133;-66
2023/08/19 00:55:32;;;;;;;32.35;29.38;;;;;;;20.75;100.00;101019.69;4970190;28;20110;-68
2023/08/19 00:58:01;;;;;;;30.95;28.10;;;;;;;20.75;100.00;101024.94;4971018;28;20102;-67
2023/08/19 01:00:28;;;;;;;30.63;28.00;;;;;;;20.75;100.00;101019.69;4970812;28;20019;-66
2023/08/19 01:02:53;;;;;;;29.80;27.05;;;;;;;20.75;100.00;101014.41;4970727;28;20058;-66
2023/08/19 01:05:22;;;;;;;31.38;28.27;;;;;;;20.75;100.00;101019.69;4970958;28;20023;-68
2023/08/19 01:07:59;;;;;;;33.03;29.98;;;;;;;20.75;100.00;101012.66;4970389;28;20055;-64
2023/08/19 01:11:10;;;;;;;32.00;28.98;;;;;;;20.76;100.00;101010.88;4958806;28;20030;-67
2023/08/19 01:13:44;;;;;;;32.43;29.37;;;;;;;20.76;100.00;101013.53;4947974;29;20666;-68
2023/08/19 01:16:26;;;;;;;31.83;28.75;;;;;;;20.75;100.00;101007.41;4965366;28;20086;-67
2023/08/19 01:18:53;;;;;;;31.00;27.98;;;;;;;20.78;100.00;101003.00;4970123;28;20035;-64
2023/08/19 01:21:20;;;;;;;32.20;29.20;;;;;;;20.78;100.00;101008.28;4969365;28;20490;-68
2023/08/19 01:23:47;;;;;;;30.35;27.65;;;;;;;20.80;100.00;101007.34;4970278;28;20077;-67
2023/08/19 01:26:13;;;;;;;33.08;29.90;;;;;;;20.82;100.00;101004.69;4969722;28;20398;-68
2023/08/19 01:28:38;;;;;;;32.45;29.35;;;;;;;20.83;100.00;101006.47;4969594;28;20025;-65
2023/08/19 01:31:03;;;;;;;32.88;29.80;;;;;;;20.86;100.00;101001.16;4969785;28;20073;-67
2023/08/19 01:33:29;;;;;;;30.02;27.33;;;;;;;20.87;100.00;100993.25;4970204;28;20107;-67
2023/08/19 01:36:16;;;;;;;31.05;28.15;;;;;;;20.88;100.00;100992.34;4960730;28;20026;-65
2023/08/19 01:39:03;;;;;;;31.67;28.67;;;;;;;20.89;100.00;100987.97;4969343;28;20113;-67
2023/08/19 01:41:30;;;;;;;29.30;26.48;;;;;;;20.92;100.00;100984.44;4962071;28;20471;-68
2023/08/19 01:43:59;;;;;;;31.05;28.15;;;;;;;20.91;100.00;100980.94;4965016;28;20031;-65
2023/08/19 01:46:26;;;;;;;29.70;26.95;;;;;;;20.94;100.00;100983.56;4969828;28;20031;-67
2023/08/19 01:48:51;;;;;;;28.38;25.90;;;;;;;20.94;100.00;100972.16;4969872;28;20015;-68
2023/08/19 01:51:17;;;;;;;29.15;26.65;;;;;;;20.96;100.00;100975.66;4969703;28;20359;-68
2023/08/19 01:53:42;;;;;;;29.17;26.52;;;;;;;20.97;100.00;100977.41;4968899;28;20030;-67
2023/08/19 01:56:08;;;;;;;27.35;24.95;;;;;;;20.98;100.00;100966.84;4969972;28;20117;-68
2023/08/19 01:58:33;;;;;;;26.95;24.55;;;;;;;21.00;100.00;100974.75;4969577;28;20074;-68
2023/08/19 02:00:58;;;;;;;26.58;24.25;;;;;;;21.00;100.00;100974.75;4969054;28;20034;-66
2023/08/19 02:03:24;;;;;;;25.10;22.70;;;;;;;21.02;100.00;100972.97;4969468;28;20105;-68
2023/08/19 02:05:49;;;;;;;24.73;22.38;;;;;;;21.03;100.00;100971.22;4967919;28;20558;-67
2023/08/19 02:08:14;;;;;;;24.13;21.92;;;;;;;21.03;100.00;100972.06;4969235;28;20043;-68
2023/08/19 02:10:42;;;;;;;23.42;21.27;;;;;;;21.04;100.00;100973.81;4969760;28;20499;-67
2023/08/19 02:13:08;;;;;;;24.40;22.20;;;;;;;21.06;100.00;100971.19;4969338;28;20035;-68
2023/08/19 02:15:33;;;;;;;24.92;22.67;;;;;;;21.06;100.00;100963.28;4969115;28;20363;-66
2023/08/19 02:17:58;;;;;;;22.40;20.60;;;;;;;21.06;100.00;100964.16;4969134;28;20041;-67
2023/08/19 02:20:23;;;;;;;22.92;20.92;;;;;;;21.06;100.00;100964.16;4969562;28;20034;-67
2023/08/19 02:22:49;;;;;;;22.13;20.02;;;;;;;21.07;100.00;100965.88;4969055;28;20033;-67
2023/08/19 02:25:14;;;;;;;22.85;20.55;;;;;;;21.07;100.00;100963.25;4968717;28;20030;-68
2023/08/19 02:27:39;;;;;;;22.75;20.58;;;;;;;21.07;100.00;100957.97;4968928;28;20014;-64
2023/08/19 02:30:05;;;;;;;21.38;19.48;;;;;;;21.07;100.00;100951.84;4969054;28;20027;-68
2023/08/19 02:32:30;;;;;;;22.75;20.75;;;;;;;21.09;100.00;100955.34;4969076;28;20089;-68
2023/08/19 02:34:56;;;;;;;22.05;19.98;;;;;;;21.08;100.00;100949.19;4968774;28;20021;-68
2023/08/19 02:37:21;;;;;;;22.02;20.17;;;;;;;21.08;100.00;100943.91;4968887;28;20019;-68
2023/08/19 02:39:46;;;;;;;22.52;20.42;;;;;;;21.07;100.00;100942.19;4969192;28;20170;-67
2023/08/19 02:42:15;;;;;;;21.75;19.75;;;;;;;21.07;100.00;100947.44;4956336;28;20077;-68
2023/08/19 02:44:41;;;;;;;20.70;18.90;;;;;;;21.07;100.00;100939.56;4968491;28;20213;-67
2023/08/19 02:47:06;;;;;;;20.27;18.65;;;;;;;21.07;100.00;100939.56;4968412;28;20161;-68
2023/08/19 02:49:31;;;;;;;19.95;18.23;;;;;;;21.07;100.00;100941.31;4969050;28;20034;-68
2023/08/19 02:51:57;;;;;;;20.27;18.55;;;;;;;21.06;100.00;100937.81;4968838;28;20084;-67
2023/08/19 02:54:23;;;;;;;19.08;17.48;;;;;;;21.06;100.00;100945.72;4968685;28;20541;-68
2023/08/19 02:56:48;;;;;;;20.38;18.55;;;;;;;21.05;100.00;100938.69;4968881;28;20170;-68
2023/08/19 02:59:14;;;;;;;19.33;17.73;;;;;;;21.06;100.00;100943.09;4968524;28;20022;-68
2023/08/19 03:01:39;;;;;;;20.67;18.42;;;;;;;21.06;100.00;100940.44;4968962;28;20062;-64
2023/08/19 03:04:05;;;;;;;19.02;17.25;;;;;;;21.06;100.00;100937.81;4971143;28;20038;-66
2023/08/19 03:06:32;;;;;;;18.73;17.02;;;;;;;21.07;100.00;100931.66;4972701;28;20147;-68
2023/08/19 03:08:57;;;;;;;19.27;17.58;;;;;;;21.08;100.00;100933.38;4972641;28;20054;-67
2023/08/19 03:11:23;;;;;;;18.45;16.83;;;;;;;21.07;100.00;100929.00;4971855;28;20026;-67
2023/08/19 03:13:48;;;;;;;19.58;17.70;;;;;;;21.08;100.00;100938.66;4972719;28;20046;-68
2023/08/19 03:16:14;;;;;;;18.85;17.20;;;;;;;21.09;100.00;100937.78;4972372;28;20054;-68
2023/08/19 03:18:40;;;;;;;18.50;16.83;;;;;;;21.09;100.00;100939.53;4972119;28;20054;-67
2023/08/19 03:21:05;;;;;;;18.85;17.05;;;;;;;21.08;100.00;100946.53;4972373;28;20514;-68
2023/08/19 03:23:30;;;;;;;19.13;16.35;;;;;;;21.09;100.00;100945.69;4972579;28;20350;-67
2023/08/19 03:25:56;;;;;;;17.35;15.80;;;;;;;21.08;100.00;100933.38;4972208;28;20118;-68
2023/08/19 03:28:22;;;;;;;18.00;16.48;;;;;;;21.09;100.00;100923.72;4972682;28;20065;-68
2023/08/19 03:30:47;;;;;;;17.45;15.95;;;;;;;21.08;100.00;100930.75;4971310;28;20515;-69
2023/08/19 03:33:12;;;;;;;17.90;16.40;;;;;;;21.08;100.00;100928.09;4972490;28;20027;-68
2023/08/19 03:35:38;;;;;;;17.38;15.88;;;;;;;21.08;100.00;100929.91;4972002;28;20026;-67
2023/08/19 03:38:03;;;;;;;17.90;16.02;;;;;;;21.07;100.00;100930.75;4971894;28;20069;-68
2023/08/19 03:40:29;;;;;;;18.23;16.63;;;;;;;21.07;100.00;100939.56;4971646;28;20026;-68
2023/08/19 03:42:54;;;;;;;17.27;15.88;;;;;;;21.08;100.00;100933.38;4972061;28;20018;-67
2023/08/19 03:45:19;;;;;;;16.30;15.00;;;;;;;21.07;100.00;100931.66;4970986;28;20026;-66
2023/08/19 03:47:45;;;;;;;18.58;17.15;;;;;;;21.08;100.00;100932.53;4959269;28;20378;-68
2023/08/19 03:50:10;;;;;;;17.38;15.88;;;;;;;21.09;100.00;100939.53;4971959;28;20031;-66
2023/08/19 03:52:35;;;;;;;16.50;15.20;;;;;;;21.08;100.00;100938.66;4971373;28;20019;-67
2023/08/19 03:55:00;;;;;;;17.00;15.50;;;;;;;21.10;100.00;100942.13;4971491;28;20027;-67
2023/08/19 03:57:26;;;;;;;17.42;15.73;;;;;;;21.11;100.00;100929.84;4971777;28;20027;-67
2023/08/19 03:59:52;;;;;;;14.95;13.65;;;;;;;21.11;100.00;100930.75;4971711;28;20493;-68
2023/08/19 04:02:17;;;;;;;16.42;14.98;;;;;;;21.11;100.00;100937.75;4972058;28;20034;-67
2023/08/19 04:05:03;;;;;;;16.80;15.25;;;;;;;21.11;100.00;100938.63;4972278;28;20035;-68
2023/08/19 04:07:28;;;;;;;16.20;14.77;;;;;;;21.13;100.00;100945.63;4961750;28;20046;-67
2023/08/19 04:09:55;;;;;;;16.45;15.05;;;;;;;21.11;100.00;100941.28;4971596;28;20019;-67
2023/08/19 04:12:23;;;;;;;16.20;14.77;;;;;;;21.12;100.00;100939.50;4971996;28;20015;-68
2023/08/19 04:14:49;;;;;;;15.23;13.88;;;;;;;21.12;100.00;100936.84;4971887;28;20389;-67
2023/08/19 04:17:15;;;;;;;16.02;14.73;;;;;;;21.10;100.00;100934.25;4972215;28;20034;-67
2023/08/19 04:19:40;;;;;;;15.68;14.18;;;;;;;21.11;100.00;100938.63;4971389;28;20157;-66
2023/08/19 04:22:05;;;;;;;15.55;14.07;;;;;;;21.11;100.00;100933.38;4972257;28;20549;-68
2023/08/19 04:24:32;;;;;;;15.60;14.13;;;;;;;21.11;100.00;100943.03;4971212;28;20026;-68
2023/08/19 04:27:01;;;;;;;15.57;14.07;;;;;;;21.13;100.00;100945.63;4970660;28;20026;-68
2023/08/19 04:29:27;;;;;;;15.60;13.63;;;;;;;21.14;100.00;100947.41;4969941;28;20042;-68
2023/08/19 04:31:52;;;;;;;14.70;13.20;;;;;;;21.13;100.00;100943.88;4970423;28;20026;-68
2023/08/19 04:34:17;;;;;;;14.55;13.35;;;;;;;21.14;100.00;100952.66;4969689;28;20027;-66
2023/08/19 04:36:42;;;;;;;14.32;12.93;;;;;;;21.15;100.00;100946.50;4969347;28;20027;-67
2023/08/19 04:39:08;;;;;;;14.05;12.95;;;;;;;21.14;100.00;100947.41;4968866;28;20390;-67
2023/08/19 04:41:33;;;;;;;14.88;13.48;;;;;;;21.15;100.00;100951.78;4967389;28;20026;-66
2023/08/19 04:43:59;;;;;;;13.90;12.73;;;;;;;21.15;100.00;100949.13;4969736;28;20154;-64
2023/08/19 04:46:24;;;;;;;13.55;12.45;;;;;;;21.16;100.00;100948.22;4969679;28;20058;-68
2023/08/19 04:48:50;;;;;;;12.68;11.60;;;;;;;21.16;100.00;100953.50;4969426;28;20023;-67
2023/08/19 04:51:15;;;;;;;12.73;11.52;;;;;;;21.15;100.00;100949.13;4969479;28;20585;-68
2023/08/19 04:53:40;;;;;;;13.05;11.75;;;;;;;21.17;100.00;100956.16;4969594;28;20042;-67
2023/08/19 04:56:06;;;;;;;13.75;11.73;;;;;;;21.17;100.00;100955.25;4971634;28;20498;-67
2023/08/19 04:58:32;;;;;;;11.95;10.85;;;;;;;21.18;100.00;100949.09;4970912;28;20050;-68
2023/08/19 05:00:57;;;;;;;13.07;11.88;;;;;;;21.19;100.00;100949.06;4971045;28;20019;-68
2023/08/19 05:03:23;;;;;;;12.02;10.93;;;;;;;21.20;100.00;100942.06;4971214;28;20029;-66
2023/08/19 05:05:49;;;;;;;11.10;10.20;;;;;;;21.21;100.00;100943.78;4971314;28;20033;-65
2023/08/19 05:08:15;;;;;;;11.15;10.15;;;;;;;21.22;100.00;100945.53;4970960;28;20124;-68
2023/08/19 05:10:40;;;;;;;12.48;11.18;;;;;;;21.23;100.00;100944.63;4970666;28;20114;-65
2023/08/19 05:13:05;;;;;;;12.35;11.25;;;;;;;21.23;100.00;100949.91;4970491;28;20031;-67
2023/08/19 05:15:31;;;;;;;13.00;11.25;;;;;;;21.26;100.00;100952.53;4971274;28;20027;-64
2023/08/19 05:17:56;;;;;;;11.98;10.85;;;;;;;21.27;100.00;100956.91;4970523;28;20471;-68
2023/08/19 05:20:21;;;;;;;11.43;10.43;;;;;;;21.30;100.00;100969.19;4970918;28;20244;-68
2023/08/19 05:22:47;;;;;;;11.68;10.48;;;;;;;21.31;100.00;100966.53;4970327;28;20505;-64
2023/08/19 05:25:12;;;;;;;10.80;9.80;;;;;;;21.33;100.00;100959.47;4970855;28;20048;-67
2023/08/19 05:27:37;;;;;;;12.85;10.07;;;;;;;21.35;100.00;100967.38;4969890;28;20015;-68
2023/08/19 05:30:04;;;;;;;11.07;10.05;;;;;;;21.38;100.00;100977.88;4970824;28;20090;-68
2023/08/19 05:32:30;;;;;;;12.20;10.70;;;;;;;21.41;100.00;100971.66;4970271;28;20027;-68
2023/08/19 05:34:55;;;;;;;14.77;9.35;;;;;;;21.43;100.00;100969.91;4970369;28;20390;-67
2023/08/19 05:37:20;;;;;;;10.90;9.90;;;;;;;21.43;100.00;100976.06;4969766;28;20030;-65
2023/08/19 05:39:45;;;;;;;11.98;9.85;;;;;;;21.46;100.00;100976.00;4968744;28;20029;-68
2023/08/19 05:42:12;;;;;;;13.13;11.35;;;;;;;21.47;100.00;100966.34;4969683;28;20496;-64
2023/08/19 05:44:37;;;;;;;12.63;10.45;;;;;;;21.48;100.00;100968.06;4969882;28;20034;-68
2023/08/19 05:47:03;;;;;;;12.20;10.90;;;;;;;21.48;100.00;100976.88;4968933;28;20046;-69
2023/08/19 05:49:29;;;;;;;10.60;9.52;;;;;;;21.49;100.00;100969.84;4958453;28;20023;-68
2023/08/19 05:51:54;;;;;;;10.88;9.30;;;;;;;21.48;100.00;100979.50;4969545;28;20122;-67
2023/08/19 05:54:20;;;;;;;10.88;9.63;;;;;;;21.51;100.00;100977.72;4969608;28;20041;-68
2023/08/19 05:56:45;;;;;;;10.60;9.57;;;;;;;21.52;100.00;100980.34;4969333;28;20026;-68
2023/08/19 05:59:10;;;;;;;10.55;9.55;;;;;;;21.54;100.00;100975.03;4969485;28;20030;-66
2023/08/19 06:01:36;;;;;;;10.32;9.32;;;;;;;21.56;100.00;100971.50;4969665;28;20030;-68
2023/08/19 06:04:01;;;;;;;9.27;8.38;;;;;;;21.57;100.00;100983.78;4969648;28;20149;-68
2023/08/19 06:06:26;;;;;;;11.30;10.20;;;;;;;21.59;100.00;100971.47;4969360;28;20038;-68
2023/08/19 06:08:52;;;;;;;10.50;9.15;;;;;;;21.60;100.00;100978.47;4969435;28;20031;-68
2023/08/19 06:11:17;;;;;;;10.63;9.65;;;;;;;21.63;100.00;100981.97;4969472;28;20035;-67
2023/08/19 06:13:42;;;;;;;12.23;9.85;;;;;;;21.65;100.00;100982.81;4969511;28;20026;-67
2023/08/19 06:16:08;;;;;;;9.93;8.95;;;;;;;21.67;100.00;100978.41;4969501;28;20465;-65
2023/08/19 06:18:33;;;;;;;10.68;9.35;;;;;;;21.70;100.00;100983.63;4969349;28;20033;-68
2023/08/19 06:21:00;;;;;;;10.75;9.75;;;;;;;21.72;100.00;100981.88;4969160;28;20162;-68
2023/08/19 06:23:25;;;;;;;11.73;8.82;;;;;;;21.75;100.00;100981.81;4969490;28;20259;-68
2023/08/19 06:25:52;;;;;;;11.15;10.15;;;;;;;21.79;100.00;100996.72;4968748;28;20117;-67
2023/08/19 06:28:18;;;;;;;12.15;9.95;;;;;;;21.81;100.00;100997.59;4957580;28;20270;-66
2023/08/19 06:30:44;;;;;;;11.82;9.18;;;;;;;21.84;100.00;101001.94;4968369;28;20030;-68
2023/08/19 06:33:11;;;;;;;10.20;9.02;;;;;;;21.87;100.00;101001.06;4969198;28;20035;-65
2023/08/19 06:35:36;;;;;;;9.48;8.57;;;;;;;21.91;100.00;101011.53;4968848;28;20490;-67
2023/08/19 06:38:18;;;;;;;10.77;9.10;;;;;;;21.98;100.00;101015.00;4968204;28;20034;-68
2023/08/19 06:40:56;;;;;;;8.98;8.07;;;;;;;22.05;100.00;101015.78;4966446;28;20054;-68
2023/08/19 06:43:25;;;;;;;9.45;8.00;;;;;;;22.13;100.00;101018.28;4960701;28;20367;-68
2023/08/19 06:45:52;;;;;;;11.48;8.88;;;;;;;22.21;100.00;101021.72;4968666;28;20023;-68
2023/08/19 06:48:18;;;;;;;10.43;8.45;;;;;;;22.31;100.00;101025.97;4968930;28;20026;-67
2023/08/19 06:50:43;;;;;;;9.80;8.80;;;;;;;22.43;100.00;101031.97;4968422;28;20014;-68
2023/08/19 06:53:10;;;;;;;9.48;8.25;;;;;;;22.50;100.00;101033.63;4968370;28;20537;-67
2023/08/19 06:55:40;;;;;;;8.63;7.72;;;;;;;22.57;100.00;101034.38;4968793;28;20019;-66
2023/08/19 06:58:13;;;;;;;7.82;6.97;;;;;;;22.64;100.00;101035.19;4968849;28;20030;-67
2023/08/19 07:00:40;;;;;;;9.50;8.00;;;;;;;22.70;100.00;101039.50;4968806;28;20033;-68
2023/08/19 07:03:06;;;;;;;8.40;7.32;;;;;;;22.76;100.00;101042.91;4968428;28;20027;-67
2023/08/19 07:05:31;;;;;;;8.55;7.65;;;;;;;22.88;100.00;101041.00;4968578;28;20023;-66
2023/08/19 07:07:57;;;;;;;7.40;6.80;;;;;;;22.96;100.00;101036.44;4968405;28;20050;-66
2023/08/19 07:10:23;;;;;;;8.82;7.05;;;;;;;23.01;100.00;101039.88;4968873;28;20419;-67
2023/08/19 07:12:49;;;;;;;8.65;7.65;;;;;;;23.03;100.00;101043.38;4968138;28;20118;-68
2023/08/19 07:15:14;;;;;;;9.52;7.50;;;;;;;23.08;100.00;101042.41;4968310;28;20058;-68
2023/08/19 07:17:43;;;;;;;8.25;7.53;;;;;;;23.22;100.00;101045.69;4968658;28;20382;-65
2023/08/19 07:20:14;;;;;;;8.85;7.72;;;;;;;23.37;100.00;101047.16;4968248;28;20018;-68
2023/08/19 07:22:42;;;;;;;8.23;7.40;;;;;;;23.59;100.00;101048.56;4968567;28;20038;-64
2023/08/19 07:25:08;;;;;;;9.40;7.30;;;;;;;23.87;100.00;101043.59;4968751;28;20023;-68
2023/08/19 07:27:35;;;;;;;7.40;6.70;;;;;;;24.21;100.00;101054.41;4968808;28;20481;-69
2023/08/19 07:30:02;;;;;;;8.10;6.75;;;;;;;24.49;100.00;101052.88;4969079;28;20442;-67
2023/08/19 07:32:28;;;;;;;7.55;6.78;;;;;;;24.75;100.00;101060.25;4968116;28;20022;-67
2023/08/19 07:34:53;;;;;;;8.32;7.43;;;;;;;24.90;100.00;101063.38;4968395;28;20529;-68
2023/08/19 07:37:19;;;;;;;8.88;6.78;;;;;;;24.90;100.00;101056.31;4968488;28;20026;-65
2023/08/19 07:39:44;;;;;;;10.00;7.00;;;;;;;24.88;100.00;101071.38;4968744;28;20031;-68
2023/08/19 07:42:10;;;;;;;8.70;6.68;;;;;;;24.87;100.00;101080.25;4955846;28;20059;-67
2023/08/19 07:44:35;;;;;;;8.00;7.05;;;;;;;24.86;100.00;101083.78;4968122;28;20423;-67
2023/08/19 07:47:00;;;;;;;8.48;7.68;;;;;;;24.87;100.00;101090.84;4968160;28;20382;-67
2023/08/19 07:49:26;;;;;;;8.50;7.75;;;;;;;24.87;100.00;101087.31;4969298;28;20034;-67
2023/08/19 07:51:51;;;;;;;7.95;7.15;;;;;;;24.88;100.00;101081.13;4971683;28;20096;-68
2023/08/19 07:54:16;;;;;;;7.47;6.57;;;;;;;24.99;100.00;101097.66;4971652;28;20030;-67
2023/08/19 07:56:42;;;;;;;8.20;7.40;;;;;;;25.07;100.00;101102.78;4971706;28;20126;-68
2023/08/19 07:59:07;;;;;;;6.80;6.22;;;;;;;25.13;100.00;101105.25;4966461;28;20035;-68
2023/08/19 08:01:32;;;;;;;8.43;6.53;;;;;;;25.08;100.00;101099.19;4966277;28;20374;-67
2023/08/19 08:03:58;;;;;;;7.45;6.35;;;;;;;25.05;100.00;101108.13;4971592;28;20387;-68
2023/08/19 08:06:23;;;;;;;7.85;7.03;;;;;;;25.02;100.00;101086.13;4971524;28;20054;-67
2023/08/19 08:08:48;;;;;;;8.45;6.80;;;;;;;24.94;100.00;101092.47;4970967;28;20046;-64
2023/08/19 08:11:14;;;;;;;8.07;6.63;;;;;;;24.92;100.00;101083.69;4970980;28;20039;-67
2023/08/19 08:13:39;;;;;;;7.85;6.78;;;;;;;24.89;100.00;101090.81;4971217;28;20113;-68
2023/08/19 08:16:07;;;;;;;9.15;6.95;;;;;;;24.83;100.00;101086.53;4971534;28;20094;-66
2023/08/19 08:18:33;;;;;;;7.38;6.68;;;;;;;24.81;100.00;101104.22;4971111;28;20033;-68
2023/08/19 08:20:58;;;;;;;7.22;6.63;;;;;;;24.78;100.00;101099.00;4971781;28;20137;-68
2023/08/19 08:23:24;;;;;;;9.02;6.45;;;;;;;24.73;100.00;101095.59;4970941;28;20538;-68
2023/08/19 08:25:49;;;;;;;7.75;7.05;;;;;;;24.69;100.00;101108.94;4970671;28;20042;-68
2023/08/19 08:28:14;;;;;;;8.20;7.40;;;;;;;24.65;100.00;101112.53;4971409;28;20027;-67
2023/08/19 08:30:39;;;;;;;7.47;6.78;;;;;;;24.62;100.00;101117.91;4970821;28;20026;-67
2023/08/19 08:33:05;;;;;;;6.95;6.28;;;;;;;24.62;100.00;101122.34;4971150;28;20057;-67
2023/08/19 08:35:32;;;;;;;7.30;6.60;;;;;;;24.63;100.00;101129.41;4971203;28;20708;-64
2023/08/19 08:37:57;;;;;;;7.32;6.63;;;;;;;24.62;100.00;101136.47;4971080;28;20379;-67
2023/08/19 08:40:22;;;;;;;8.93;7.30;;;;;;;24.59;100.00;101131.25;4970537;28;20035;-68
2023/08/19 08:42:49;;;;;;;7.82;7.10;;;;;;;24.58;100.00;101142.72;4970843;28;20054;-66
2023/08/19 08:45:16;;;;;;;8.73;7.47;;;;;;;24.54;100.00;101162.22;4964686;28;20034;-68
2023/08/19 08:47:42;;;;;;;8.02;7.25;;;;;;;24.52;100.00;101159.63;4963902;28;20450;-67
2023/08/19 08:50:08;;;;;;;8.75;7.85;;;;;;;24.48;100.00;101142.06;4963019;28;20113;-65
2023/08/19 08:52:34;;;;;;;9.65;7.53;;;;;;;24.47;100.00;101145.59;4970368;28;20060;-67
2023/08/19 08:55:01;;;;;;;8.27;7.47;;;;;;;24.45;100.00;101144.75;4970531;28;20026;-67
2023/08/19 08:57:26;;;;;;;9.00;8.15;;;;;;;24.43;100.00;101157.19;4969666;28;20538;-68
2023/08/19 08:59:54;;;;;;;8.70;7.88;;;;;;;24.39;100.00;101159.03;4966659;28;20125;-65
2023/08/19 09:02:21;;;;;;;8.02;7.28;;;;;;;24.37;100.00;101166.13;4959259;28;20058;-68
2023/08/19 09:04:46;;;;;;;9.18;8.20;;;;;;;24.37;100.00;101179.38;4960979;28;20491;-67
2023/08/19 09:07:25;;;;;;;8.18;7.35;;;;;;;24.36;100.00;101174.09;4966496;28;20057;-68
2023/08/19 09:09:52;;;;;;;9.88;7.97;;;;;;;24.39;100.00;101179.31;4969949;28;20086;-67
2023/08/19 09:12:20;;;;;;;10.65;7.95;;;;;;;24.42;100.00;101181.91;4970051;28;20014;-68
2023/08/19 09:14:50;;;;;;;9.43;7.88;;;;;;;24.46;100.00;101191.53;4970128;28;20078;-67
2023/08/19 09:17:15;;;;;;;10.25;7.60;;;;;;;24.48;100.00;101187.09;4970380;28;20027;-67
2023/08/19 09:19:41;;;;;;;9.20;8.32;;;;;;;24.53;100.00;101192.28;4969769;28;20510;-68
2023/08/19 09:22:16;;;;;;;8.18;6.78;;;;;;;24.58;100.00;101201.00;4970315;28;20026;-68
2023/08/19 09:24:41;;;;;;;8.45;7.75;;;;;;;24.63;100.00;101193.81;4970117;28;20490;-68
2023/08/19 09:37:14;;;;;;;10.52;9.07;;;;;;;24.87;100.00;101215.38;4985803;28;20073;-68
2023/08/19 09:39:39;;;;;;;11.75;10.07;;;;;;;24.90;100.00;101217.06;4990149;28;20030;-67
2023/08/19 09:42:08;;;;;;;11.00;9.80;;;;;;;24.96;100.00;101221.41;4975983;28;20062;-69
2023/08/19 09:44:33;;;;;;;11.40;10.40;;;;;;;25.05;100.00;101226.50;4989229;28;20034;-68
2023/08/19 09:47:02;;;;;;;10.85;9.90;;;;;;;25.15;100.00;101224.53;4975920;28;20025;-68
2023/08/19 09:49:27;;;;;;;11.10;10.05;;;;;;;25.28;100.00;101227.72;4988351;28;20073;-68
2023/08/19 09:51:54;;;;;;;11.75;10.65;;;;;;;25.38;100.00;101229.25;4989078;28;20532;-67
2023/08/19 09:54:20;;;;;;;13.30;12.10;;;;;;;25.46;100.00;101238.78;4979819;28;20090;-68
2023/08/19 09:56:53;;;;;;;13.23;11.88;;;;;;;25.52;100.00;101249.28;4984942;28;20026;-68
2023/08/19 09:59:18;;;;;;;14.80;13.35;;;;;;;25.57;100.00;101252.69;4983073;28;20118;-68
2023/08/19 10:01:44;;;;;;;15.38;13.45;;;;;;;25.59;100.00;101252.63;4973294;28;20175;-66
2023/08/19 10:04:09;;;;;;;15.15;13.38;;;;;;;25.56;100.00;101264.22;4988877;28;20034;-68
2023/08/19 10:09:58;;;;;;;15.27;13.73;;;;;;;25.74;100.00;101262.88;4379846;28;20569;-70
2023/08/19 10:12:25;;;;;;;14.02;12.55;;;;;;;25.82;100.00;101275.09;4968469;28;20479;-69
2023/08/19 10:14:57;;;;;;;14.07;12.77;;;;;;;25.86;100.00;101266.16;4968195;28;20372;-69
2023/08/19 10:17:25;;;;;;;12.82;11.68;;;;;;;25.92;100.00;101276.63;4968543;28;20080;-69
2023/08/19 10:19:58;;;;;;;13.20;12.00;;;;;;;25.94;100.00;101274.75;4968185;28;20042;-69
2023/08/19 10:22:26;;;;;;;13.50;11.75;;;;;;;25.98;100.00;101276.44;4968578;28;20624;-69
2023/08/19 10:24:54;;;;;;;13.70;12.50;;;;;;;25.97;100.00;101279.13;4969694;28;20042;-67
2023/08/19 10:27:20;;;;;;;11.52;10.43;;;;;;;25.96;100.00;101286.22;4968288;28;20094;-68
2023/08/19 10:29:46;;;;;;;13.40;12.05;;;;;;;25.94;100.00;101290.69;4969215;28;20025;-69
2023/08/19 10:32:32;;;;;;;13.32;12.15;;;;;;;26.00;100.00;101294.97;4968337;28;20401;-69
2023/08/19 10:35:04;;;;;;;13.23;12.00;;;;;;;26.04;100.00;101295.78;4969045;28;20109;-69
2023/08/19 10:37:31;;;;;;;12.93;11.75;;;;;;;26.06;100.00;101294.84;4969384;28;20041;-70
2023/08/19 10:40:09;;;;;;;14.40;12.90;;;;;;;26.12;100.00;101297.31;4969071;28;20053;-69
2023/08/19 10:42:35;;;;;;;15.93;14.23;;;;;;;26.21;100.00;101303.31;4968992;28;20035;-70
2023/08/19 10:45:00;;;;;;;15.43;14.02;;;;;;;26.20;100.00;101307.72;4968399;28;20041;-68
2023/08/19 10:47:26;;;;;;;14.25;12.95;;;;;;;26.17;100.00;101315.78;4968576;28;20039;-68
2023/08/19 10:50:01;;;;;;;13.43;12.02;;;;;;;26.15;100.00;101325.56;4969374;28;20114;-69
2023/08/19 10:52:26;;;;;;;13.02;11.75;;;;;;;26.10;100.00;101323.03;4968921;28;20030;-70
2023/08/19 10:54:51;;;;;;;13.85;12.45;;;;;;;26.02;100.00;101332.97;4968573;28;20083;-68
2023/08/19 10:57:22;;;;;;;12.65;11.48;;;;;;;25.92;100.00;101335.00;4968943;28;20206;-69
2023/08/19 10:59:52;;;;;;;15.75;13.32;;;;;;;25.85;100.00;101344.88;4969098;28;20042;-69
2023/08/19 11:02:18;;;;;;;15.00;13.52;;;;;;;25.77;100.00;101347.75;4969159;28;20027;-69
2023/08/19 11:04:47;;;;;;;13.20;11.88;;;;;;;25.72;100.00;101343.44;4969089;28;20031;-69
2023/08/19 11:07:12;;;;;;;14.23;13.02;;;;;;;25.64;100.00;101346.25;4969129;28;20030;-68
2023/08/19 11:09:42;;;;;;;12.70;11.40;;;;;;;25.58;100.00;101346.41;4968106;28;20402;-70
2023/08/19 11:12:08;;;;;;;14.27;12.75;;;;;;;25.52;100.00;101352.72;4968337;28;20034;-68
2023/08/19 11:14:34;;;;;;;14.50;13.00;;;;;;;25.47;100.00;101351.94;4967478;28;20458;-69
2023/08/19 11:16:59;;;;;;;14.38;13.05;;;;;;;25.45;100.00;101367.03;4967286;28;20125;-70
2023/08/19 11:19:25;;;;;;;13.77;12.35;;;;;;;25.40;100.00;101375.94;4967589;28;20027;-69